Time;durP1;ratioP1;P1;durP2;ratioP2;P2;SDS_P1;SDS_P2;PMS_P1;PMS_P2;Temp;Humidity;BMP_temperature;BMP_pressure;BME280_temperature;BME280_humidity;BME280_pressure;Samples;Min_cycle;Max_cycle;Signal;HPM_P1;HPM_P2
2021/01/23 00:01:14;;;;;;;19.27;7.15;;;;;;;3.20;93.56;99462.09;10466361;28;20043;-74
2021/01/23 00:06:14;;;;;;;16.92;5.90;;;;;;;3.32;93.77;99475.38;10474157;28;20086;-73
2021/01/23 00:11:15;;;;;;;16.23;6.07;;;;;;;3.34;93.00;99441.09;10441940;28;20493;-73
2021/01/23 00:16:18;;;;;;;12.38;6.40;;;;;;;2.89;93.16;99388.88;10468033;28;20055;-74
2021/01/23 00:21:18;;;;;;;14.55;6.28;;;;;;;3.17;92.82;99414.72;10437864;28;20051;-76
2021/01/23 00:26:19;;;;;;;15.18;6.20;;;;;;;3.55;92.57;99450.72;10450203;28;20037;-74
2021/01/23 00:31:19;;;;;;;20.10;7.78;;;;;;;3.79;92.82;99477.28;10444235;28;20044;-75
2021/01/23 00:36:20;;;;;;;18.05;6.60;;;;;;;3.66;93.07;99451.75;10478844;28;20397;-75
2021/01/23 00:41:20;;;;;;;15.77;6.68;;;;;;;3.47;93.67;99416.97;10417309;28;20045;-76
2021/01/23 00:46:21;;;;;;;17.88;6.57;;;;;;;3.86;93.73;99465.19;10430740;28;20132;-75
2021/01/23 00:51:22;;;;;;;13.63;7.40;;;;;;;3.62;93.23;99408.13;10431722;28;20083;-76
2021/01/23 00:56:22;;;;;;;14.95;6.75;;;;;;;4.02;93.45;99479.31;10427005;28;20037;-75
2021/01/23 01:01:22;;;;;;;9.85;6.53;;;;;;;3.95;93.00;99447.06;10417579;28;20051;-76
2021/01/23 01:06:23;;;;;;;18.30;7.93;;;;;;;3.92;92.91;99459.22;10424643;28;20049;-75
2021/01/23 01:11:23;;;;;;;15.60;6.85;;;;;;;3.56;92.98;99430.91;10435230;28;20053;-77
2021/01/23 01:16:25;;;;;;;15.80;7.63;;;;;;;3.46;93.76;99404.72;10426692;28;20047;-75
2021/01/23 01:21:25;;;;;;;10.93;6.45;;;;;;;3.68;93.66;99417.44;10402324;28;20037;-75
2021/01/23 01:26:26;;;;;;;11.65;7.10;;;;;;;3.64;94.53;99437.97;10415011;28;20464;-75
2021/01/23 01:31:26;;;;;;;18.38;8.27;;;;;;;3.42;94.95;99414.56;10412956;28;20092;-76
2021/01/23 01:36:27;;;;;;;12.98;7.85;;;;;;;3.46;95.05;99420.75;10404817;28;20033;-73
2021/01/23 01:41:27;;;;;;;13.25;7.70;;;;;;;3.67;94.83;99456.00;10414974;28;20056;-74
2021/01/23 01:46:28;;;;;;;12.45;7.85;;;;;;;3.43;95.12;99421.44;10423746;28;20045;-75
2021/01/23 01:51:28;;;;;;;15.75;8.43;;;;;;;3.65;95.22;99449.44;10409811;28;20037;-75
2021/01/23 01:56:29;;;;;;;13.45;8.25;;;;;;;3.66;96.01;99451.75;10408962;28;20033;-77
2021/01/23 02:01:32;;;;;;;14.38;7.22;;;;;;;3.71;95.61;99448.81;10389010;28;20037;-76
2021/01/23 02:07:00;;;;;;;13.43;8.02;;;;;;;3.85;95.35;99458.28;10431041;28;20070;-75
2021/01/23 02:12:03;;;;;;;15.02;6.57;;;;;;;3.90;95.15;99455.34;10429800;28;20041;-78
2021/01/23 02:17:08;;;;;;;13.60;6.78;;;;;;;3.35;95.38;99373.19;10443826;28;20143;-78
2021/01/23 02:22:21;;;;;;;13.18;6.35;;;;;;;4.04;94.53;99450.31;10409460;28;20051;-76
2021/01/23 02:27:41;;;;;;;13.20;7.20;;;;;;;3.98;94.25;99446.38;10419384;28;20111;-76
2021/01/23 02:32:42;;;;;;;11.95;6.60;;;;;;;3.91;94.66;99430.19;10423529;28;20090;-75
2021/01/23 02:37:44;;;;;;;12.00;7.00;;;;;;;3.86;94.69;99438.44;10397238;28;20427;-76
2021/01/23 02:42:47;;;;;;;12.63;7.83;;;;;;;3.25;95.09;99370.28;10399612;28;20056;-76
2021/01/23 02:47:47;;;;;;;10.95;6.97;;;;;;;3.65;95.25;99434.19;10435717;28;20044;-75
2021/01/23 02:53:03;;;;;;;13.73;7.22;;;;;;;3.73;94.58;99425.19;10394969;28;20063;-76
2021/01/23 02:58:05;;;;;;;12.73;6.72;;;;;;;3.69;94.92;99424.38;10425353;28;20041;-77
2021/01/23 03:03:05;;;;;;;11.75;7.38;;;;;;;3.76;94.76;99424.53;10432668;28;20040;-77
2021/01/23 03:08:06;;;;;;;11.10;6.10;;;;;;;3.38;95.02;99393.84;10427109;28;20041;-77
2021/01/23 03:13:08;;;;;;;9.52;5.07;;;;;;;3.05;94.65;99326.69;10433772;28;20051;-77
2021/01/23 03:18:09;;;;;;;10.17;5.23;;;;;;;2.57;95.25;99251.19;10436419;28;20482;-76
2021/01/23 03:23:09;;;;;;;9.00;4.90;;;;;;;3.14;95.68;99367.34;10423839;28;20059;-75
2021/01/23 03:28:10;;;;;;;12.40;5.03;;;;;;;2.35;95.57;99247.97;10415208;28;20398;-75
2021/01/23 03:33:10;;;;;;;9.85;4.88;;;;;;;3.35;95.71;99383.88;10409450;28;20029;-75
2021/01/23 03:38:10;;;;;;;10.23;4.55;;;;;;;3.35;94.96;99383.88;10391884;28;20041;-75
2021/01/23 03:43:13;;;;;;;6.85;4.45;;;;;;;3.32;95.98;99416.63;10461625;28;20493;-75
2021/01/23 03:48:14;;;;;;;11.20;4.00;;;;;;;3.26;95.52;99412.66;10468562;28;20064;-75
2021/01/23 03:53:14;;;;;;;12.63;4.50;;;;;;;2.87;95.64;99355.59;10483093;28;20048;-76
2021/01/23 03:58:19;;;;;;;9.65;4.70;;;;;;;2.89;95.86;99367.50;10456880;28;20044;-75
2021/01/23 04:03:19;;;;;;;7.57;4.78;;;;;;;3.13;96.46;99393.28;10460286;28;20040;-75
2021/01/23 04:08:19;;;;;;;12.20;4.40;;;;;;;3.32;95.94;99405.94;10438014;28;20102;-76
2021/01/23 04:13:20;;;;;;;10.95;4.85;;;;;;;3.29;95.63;99389.81;10467558;28;20048;-74
2021/01/23 04:18:21;;;;;;;9.60;5.20;;;;;;;3.04;95.66;99335.84;10458955;28;20044;-75
2021/01/23 04:23:21;;;;;;;10.73;4.97;;;;;;;3.30;95.46;99408.19;10454434;28;20044;-75
2021/01/23 04:28:22;;;;;;;11.82;5.65;;;;;;;3.06;96.57;99381.66;10462273;28;20058;-74
2021/01/23 04:33:22;;;;;;;12.88;5.05;;;;;;;3.14;96.46;99372.69;10467089;28;21570;-75
2021/01/23 04:38:23;;;;;;;12.35;5.10;;;;;;;2.96;95.68;99335.66;10453464;28;20045;-74
2021/01/23 04:43:24;;;;;;;10.43;4.65;;;;;;;3.12;96.20;99385.59;10425596;28;20071;-75
2021/01/23 04:48:24;;;;;;;7.63;4.05;;;;;;;3.11;96.36;99411.53;10418324;28;20560;-74
2021/01/23 04:53:25;;;;;;;10.45;4.28;;;;;;;2.92;96.94;99382.84;10436285;28;20143;-74
2021/01/23 04:58:25;;;;;;;8.13;4.30;;;;;;;3.24;96.26;99401.53;10414115;28;20037;-76
2021/01/23 05:03:26;;;;;;;7.18;4.00;;;;;;;3.08;95.70;99379.38;10430029;28;20040;-74
2021/01/23 05:08:34;;;;;;;9.95;4.50;;;;;;;2.86;95.73;99362.84;10431706;28;20044;-75
2021/01/23 05:13:34;;;;;;;10.93;4.35;;;;;;;2.93;96.15;99384.38;10432902;28;20695;-75
2021/01/23 05:18:35;;;;;;;7.88;3.80;;;;;;;2.90;96.16;99387.75;10432755;28;20037;-73
2021/01/23 05:23:35;;;;;;;18.08;4.95;;;;;;;2.90;96.99;99400.31;10413598;28;20041;-75
2021/01/23 05:28:37;;;;;;;9.05;4.20;;;;;;;2.53;97.68;99345.22;10431430;28;20044;-76
2021/01/23 05:33:37;;;;;;;7.97;4.17;;;;;;;2.87;97.08;99383.09;10421479;28;20117;-73
2021/01/23 05:38:40;;;;;;;8.38;3.45;;;;;;;2.88;96.90;99387.28;10432013;28;20052;-74
2021/01/23 05:43:44;;;;;;;8.55;3.95;;;;;;;3.03;97.02;99404.44;10429100;28;20116;-75
2021/01/23 05:48:49;;;;;;;10.52;4.15;;;;;;;2.83;97.12;99379.56;10435812;28;20037;-74
2021/01/23 05:53:50;;;;;;;9.45;4.15;;;;;;;2.74;96.45;99349.56;10434009;28;20028;-74
2021/01/23 05:58:51;;;;;;;11.18;3.55;;;;;;;2.73;96.65;99356.03;10423380;28;20033;-75
2021/01/23 06:03:58;;;;;;;8.80;3.42;;;;;;;3.18;96.15;99406.38;10432622;28;20041;-76
2021/01/23 06:08:59;;;;;;;13.55;4.82;;;;;;;3.18;96.57;99394.91;10435815;28;20489;-76
2021/01/23 06:14:02;;;;;;;10.75;3.80;;;;;;;3.29;95.54;99411.97;10426474;28;20068;-76
2021/01/23 06:19:02;;;;;;;10.70;3.83;;;;;;;3.34;95.34;99409.03;10433201;28;20084;-76
2021/01/23 06:24:03;;;;;;;8.55;3.40;;;;;;;3.17;96.03;99404.03;10433344;28;20715;-76
2021/01/23 06:29:03;;;;;;;8.00;3.33;;;;;;;2.89;95.45;99372.84;10425651;28;20041;-76
2021/01/23 06:34:26;;;;;;;9.73;4.03;;;;;;;2.96;96.27;99426.41;10410808;28;20591;-76
2021/01/23 06:39:27;;;;;;;11.07;4.00;;;;;;;2.73;97.29;99414.75;10421966;28;20099;-77
2021/01/23 06:44:32;;;;;;;11.15;4.25;;;;;;;2.92;97.33;99446.91;10433247;28;20040;-78
2021/01/23 06:49:43;;;;;;;9.60;4.22;;;;;;;2.54;97.54;99384.16;10404305;28;20767;-77
2021/01/23 06:54:46;;;;;;;9.13;3.55;;;;;;;2.93;97.55;99432.41;10428449;28;20053;-75
2021/01/23 06:59:48;;;;;;;11.95;4.10;;;;;;;2.94;96.96;99439.31;10417402;28;20037;-74
2021/01/23 07:04:49;;;;;;;9.13;3.90;;;;;;;3.01;96.73;99443.28;10429298;28;20505;-74
2021/01/23 07:09:51;;;;;;;9.93;3.40;;;;;;;2.72;96.93;99415.84;10395358;28;20328;-74
2021/01/23 07:14:51;;;;;;;10.47;3.53;;;;;;;2.46;96.95;99398.38;10396748;28;21016;-75
2021/01/23 07:19:51;;;;;;;9.63;3.60;;;;;;;2.87;97.10;99455.16;10429265;28;20041;-74
2021/01/23 07:24:52;;;;;;;14.75;4.55;;;;;;;2.77;97.05;99444.94;10407125;28;20049;-75
2021/01/23 07:29:52;;;;;;;9.27;4.07;;;;;;;2.82;97.30;99447.38;10406261;28;20860;-75
2021/01/23 07:34:54;;;;;;;11.63;4.38;;;;;;;1.94;97.00;99313.94;10413214;28;20063;-75
2021/01/23 07:39:55;;;;;;;11.13;3.70;;;;;;;2.85;96.09;99436.03;10413581;28;20052;-74
2021/01/23 07:44:55;;;;;;;10.73;3.90;;;;;;;2.78;97.09;99451.84;10448994;28;20056;-75
2021/01/23 07:50:06;;;;;;;8.85;3.70;;;;;;;2.74;97.63;99440.31;10461821;28;20048;-75
2021/01/23 07:55:08;;;;;;;11.23;3.92;;;;;;;2.77;97.66;99460.19;10453780;28;20470;-74
2021/01/23 08:00:20;;;;;;;14.30;4.50;;;;;;;2.48;97.70;99409.50;10443427;28;20258;-75
2021/01/23 08:05:21;;;;;;;11.38;4.07;;;;;;;2.73;97.59;99454.78;10448571;28;20062;-74
2021/01/23 08:10:22;;;;;;;13.88;4.28;;;;;;;2.80;97.32;99454.97;10463326;28;21432;-77
2021/01/23 08:15:26;;;;;;;11.48;4.65;;;;;;;2.18;96.86;99354.94;10441312;28;20041;-76
2021/01/23 08:20:36;;;;;;;7.70;4.13;;;;;;;2.97;96.60;99476.00;10466206;28;20135;-74
2021/01/23 08:25:42;;;;;;;6.53;2.97;;;;;;;3.11;95.63;99464.16;10470795;28;20511;-77
2021/01/23 08:30:43;;;;;;;14.38;4.07;;;;;;;2.95;95.46;99424.84;10452089;28;20342;-74
2021/01/23 08:35:43;;;;;;;8.63;3.78;;;;;;;3.00;93.50;99409.72;10434679;28;20052;-75
2021/01/23 08:40:44;;;;;;;14.70;3.45;;;;;;;3.48;93.46;99455.91;10447862;28;20102;-78
2021/01/23 08:45:45;;;;;;;19.77;5.47;;;;;;;3.64;92.49;99453.22;10423193;28;20062;-76
2021/01/23 08:50:45;;;;;;;11.30;3.40;;;;;;;3.55;90.64;99418.66;10444324;28;20070;-77
2021/01/23 08:55:46;;;;;;;11.75;3.25;;;;;;;2.73;91.43;99294.66;10446667;28;20466;-76
2021/01/23 09:00:46;;;;;;;11.48;3.20;;;;;;;3.57;91.80;99453.84;10433420;28;20043;-75
2021/01/23 09:05:47;;;;;;;8.02;4.18;;;;;;;3.24;92.29;99414.13;10426230;28;20366;-75
2021/01/23 09:10:47;;;;;;;7.57;3.28;;;;;;;3.52;92.24;99467.47;10432185;28;20044;-76
2021/01/23 09:15:48;;;;;;;9.02;2.70;;;;;;;3.88;89.97;99414.81;10440546;28;20536;-74
2021/01/23 09:20:49;;;;;;;7.75;2.50;;;;;;;5.96;81.00;99472.22;10430768;28;20044;-76
2021/01/23 09:25:50;;;;;;;7.03;2.50;;;;;;;7.32;73.57;99460.41;10427542;28;20036;-76
2021/01/23 09:30:50;;;;;;;5.78;2.42;;;;;;;8.35;68.64;99462.25;10403783;28;20040;-76
2021/01/23 09:35:51;;;;;;;8.18;2.30;;;;;;;8.38;68.68;99443.44;10446690;28;20043;-78
2021/01/23 09:40:54;;;;;;;9.25;2.58;;;;;;;7.92;69.61;99446.63;10432989;28;20060;-79
2021/01/23 09:45:54;;;;;;;7.72;2.45;;;;;;;7.46;71.65;99441.69;10396758;28;20049;-77
2021/01/23 09:50:55;;;;;;;6.07;2.30;;;;;;;6.69;72.77;99384.94;10415760;28;20029;-77
2021/01/23 09:55:55;;;;;;;6.45;2.50;;;;;;;6.80;74.31;99448.72;10400190;28;20045;-76
2021/01/23 10:00:56;;;;;;;14.63;2.83;;;;;;;6.01;77.55;99442.41;10403065;28;20692;-77
2021/01/23 10:05:56;;;;;;;8.55;2.78;;;;;;;5.06;80.96;99396.50;10405628;28;20045;-81
2021/01/23 10:10:57;;;;;;;6.72;2.72;;;;;;;5.19;79.98;99382.91;10418245;28;20045;-80
2021/01/23 10:15:57;;;;;;;12.13;3.10;;;;;;;6.01;78.33;99427.06;10440357;28;20154;-82
2021/01/23 10:20:58;;;;;;;9.40;2.70;;;;;;;6.12;77.36;99443.31;10419291;28;20182;-82
2021/01/23 10:26:00;;;;;;;12.07;3.20;;;;;;;6.11;77.60;99431.81;10395780;28;20129;-83
2021/01/23 10:31:01;;;;;;;6.35;3.25;;;;;;;6.08;77.37;99443.25;10412197;28;20033;-84
2021/01/23 10:36:01;;;;;;;12.50;3.55;;;;;;;5.65;80.78;99444.53;10409745;28;20049;-82
2021/01/23 10:41:02;;;;;;;7.15;2.83;;;;;;;5.20;81.24;99416.63;10397802;28;20060;-83
2021/01/23 10:46:11;;;;;;;7.57;2.92;;;;;;;5.24;80.62;99410.22;10408859;28;20128;-81
2021/01/23 10:51:12;;;;;;;12.40;3.58;;;;;;;4.63;83.73;99417.16;10395328;28;20530;-80
2021/01/23 10:56:13;;;;;;;6.93;3.08;;;;;;;4.74;84.62;99472.78;10421450;28;20045;-83
2021/01/23 11:01:14;;;;;;;8.87;3.77;;;;;;;4.04;85.47;99348.72;10428844;28;20041;-84
2021/01/23 11:06:14;;;;;;;8.73;3.30;;;;;;;4.33;86.19;99400.13;10400322;28;20063;-85
2021/01/23 11:11:17;;;;;;;6.70;3.33;;;;;;;4.66;85.61;99416.44;10418705;28;20037;-82
2021/01/23 11:16:18;;;;;;;9.43;3.60;;;;;;;3.97;86.62;99295.09;10427944;28;20397;-81
2021/01/23 11:21:18;;;;;;;9.43;3.28;;;;;;;4.91;86.08;99415.34;10416610;28;20044;-82
2021/01/23 11:26:21;;;;;;;7.85;3.15;;;;;;;4.99;85.22;99423.16;10428579;28;20178;-83
2021/01/23 11:31:24;;;;;;;9.90;3.15;;;;;;;4.50;86.90;99380.97;10431533;28;20657;-80
2021/01/23 11:36:25;;;;;;;11.57;3.88;;;;;;;4.54;86.85;99363.06;10388242;28;20061;-86
2021/01/23 11:41:25;;;;;;;12.20;3.80;;;;;;;4.70;85.71;99399.66;10395876;28;20176;-80
2021/01/23 11:46:27;;;;;;;12.55;4.47;;;;;;;4.62;87.16;99391.50;10426906;28;20048;-79
2021/01/23 11:51:27;;;;;;;8.52;3.55;;;;;;;4.77;87.21;99394.44;10430658;28;20044;-81
2021/01/23 11:56:28;;;;;;;9.98;3.53;;;;;;;4.62;86.32;99348.69;10397292;28;20037;-84
2021/01/23 12:01:29;;;;;;;6.90;4.18;;;;;;;4.83;86.74;99401.06;10395183;28;20037;-80
2021/01/23 12:06:29;;;;;;;9.00;4.10;;;;;;;4.92;86.60;99396.25;10414661;28;20044;-78
2021/01/23 12:11:31;;;;;;;10.63;4.20;;;;;;;4.84;86.89;99383.84;10430769;28;20072;-81
2021/01/23 12:16:31;;;;;;;8.10;4.23;;;;;;;4.74;87.01;99363.03;10398066;28;20346;-81
2021/01/23 12:21:32;;;;;;;8.07;4.30;;;;;;;4.72;86.86;99341.19;10430173;28;20087;-80
2021/01/23 12:26:40;;;;;;;7.07;4.13;;;;;;;5.06;86.49;99374.31;10420030;28;20041;-82
2021/01/23 12:31:46;;;;;;;16.95;5.50;;;;;;;4.94;86.77;99351.16;10415605;28;20202;-81
2021/01/23 12:36:46;;;;;;;9.70;4.13;;;;;;;4.70;86.86;99303.31;10417231;28;20086;-83
2021/01/23 12:41:47;;;;;;;14.98;4.82;;;;;;;4.85;87.58;99305.88;10438994;28;20413;-79
2021/01/23 12:46:47;;;;;;;22.80;5.90;;;;;;;5.36;86.78;99360.22;10416294;28;20036;-80
2021/01/23 12:51:48;;;;;;;12.85;4.50;;;;;;;5.34;85.77;99341.84;10412037;28;20067;-81
2021/01/23 12:56:50;;;;;;;10.20;4.70;;;;;;;5.23;85.87;99335.53;10425514;28;20036;-79
2021/01/23 13:01:51;;;;;;;9.73;4.28;;;;;;;5.28;85.74;99344.03;10429422;28;20032;-85
2021/01/23 13:06:51;;;;;;;15.85;5.28;;;;;;;4.86;85.73;99274.50;10389506;28;20045;-83
2021/01/23 13:11:52;;;;;;;13.95;4.45;;;;;;;5.06;85.61;99310.78;10393998;28;20546;-83
2021/01/23 13:17:07;;;;;;;;;;;;;;;;;;;;;
2021/01/23 13:22:38;;;;;;;;;;;;;;;;;;;;;
2021/01/23 13:27:40;;;;;;;14.18;5.28;;;;;;;5.07;85.91;99339.13;10434878;28;20504;-80
2021/01/23 13:32:43;;;;;;;12.20;5.68;;;;;;;5.14;86.59;99348.41;10426441;28;20119;-78
2021/01/23 13:37:43;;;;;;;;;;;;;;;5.09;85.92;99338.75;10433696;28;20039;-82
2021/01/23 13:42:44;;;;;;;14.52;5.75;;;;;;;5.09;86.25;99331.50;10430817;28;19976;-81
2021/01/23 13:47:46;;;;;;;16.20;5.55;;;;;;;4.76;85.86;99275.13;10442800;28;20081;-78
2021/01/23 13:52:47;;;;;;;18.30;5.38;;;;;;;4.87;85.23;99281.41;10440947;28;20053;-79
2021/01/23 13:57:47;;;;;;;11.82;5.30;;;;;;;4.98;85.45;99303.75;10420842;28;20039;-79
2021/01/23 14:02:47;;;;;;;13.05;5.78;;;;;;;5.01;86.66;99319.13;10432116;28;20053;-78
2021/01/23 14:07:48;;;;;;;17.05;6.13;;;;;;;4.60;87.29;99251.91;10442554;28;20043;-82
2021/01/23 14:12:48;;;;;;;10.07;5.45;;;;;;;5.06;87.08;99315.38;10430399;28;20043;-79
2021/01/23 14:17:50;;;;;;;17.20;6.78;;;;;;;5.01;87.60;99312.97;10446192;28;20394;-79
2021/01/23 14:22:50;;;;;;;15.55;6.07;;;;;;;5.05;88.02;99314.59;10453444;28;20036;-78
2021/01/23 14:27:51;;;;;;;10.68;5.93;;;;;;;4.81;87.19;99299.66;10441260;28;20469;-82
2021/01/23 14:32:51;;;;;;;10.80;5.45;;;;;;;5.04;86.96;99323.00;10441514;28;20394;-79
2021/01/23 14:37:51;;;;;;;11.32;6.55;;;;;;;4.79;87.09;99295.81;10437687;28;20040;-79
2021/01/23 14:42:54;;;;;;;9.50;5.72;;;;;;;4.68;86.26;99278.78;10441092;28;20056;-80
2021/01/23 14:47:55;;;;;;;10.30;6.07;;;;;;;4.95;87.15;99315.19;10437768;28;20041;-80
2021/01/23 14:52:57;;;;;;;14.57;6.93;;;;;;;4.97;86.02;99329.00;10442508;28;20033;-80
2021/01/23 14:57:57;;;;;;;15.33;7.03;;;;;;;4.78;87.26;99294.28;10423833;28;20051;-81
2021/01/23 15:02:58;;;;;;;10.50;5.60;;;;;;;4.87;87.74;99321.59;10434754;28;20292;-80
2021/01/23 15:07:58;;;;;;;15.45;6.50;;;;;;;4.73;88.64;99308.72;10436288;28;20332;-81
2021/01/23 15:12:59;;;;;;;12.68;6.53;;;;;;;4.38;88.77;99255.38;10444113;28;20504;-80
2021/01/23 15:17:59;;;;;;;16.08;7.35;;;;;;;4.82;89.35;99311.16;10422085;28;20481;-81
2021/01/23 15:22:59;;;;;;;16.10;6.88;;;;;;;4.82;89.36;99316.50;10436534;28;20048;-80
2021/01/23 15:28:01;;;;;;;14.45;7.47;;;;;;;4.56;89.65;99285.88;10418715;28;20045;-79
2021/01/23 15:33:01;;;;;;;19.80;8.25;;;;;;;4.49;89.91;99275.03;10439663;28;20553;-83
2021/01/23 15:38:02;;;;;;;16.95;7.88;;;;;;;4.41;90.72;99276.81;10423221;28;20037;-81
2021/01/23 15:43:04;;;;;;;16.27;7.88;;;;;;;4.63;90.87;99315.44;10435562;28;20064;-80
2021/01/23 15:48:05;;;;;;;16.92;8.82;;;;;;;4.15;91.32;99248.09;10415463;28;20493;-75
2021/01/23 15:53:05;;;;;;;17.45;8.85;;;;;;;4.23;91.26;99265.81;10429089;28;20088;-79
2021/01/23 15:58:05;;;;;;;19.52;10.57;;;;;;;4.52;91.35;99314.47;10424496;28;20048;-80
2021/01/23 16:03:06;;;;;;;23.92;11.48;;;;;;;4.05;91.98;99254.00;10411419;28;20052;-81
2021/01/23 16:08:06;;;;;;;16.60;10.98;;;;;;;4.06;92.42;99276.94;10430562;28;20043;-82
2021/01/23 16:13:07;;;;;;;18.52;10.95;;;;;;;4.14;93.52;99283.97;10407221;28;20032;-79
2021/01/23 16:18:09;;;;;;;22.38;12.07;;;;;;;4.05;93.74;99280.75;10381404;28;20041;-79
2021/01/23 16:23:10;;;;;;;24.98;13.38;;;;;;;4.32;94.04;99312.97;10418354;28;20040;-79
2021/01/23 16:28:11;;;;;;;31.05;14.43;;;;;;;4.26;94.62;99322.38;10421256;28;20124;-81
2021/01/23 16:33:11;;;;;;;36.22;18.20;;;;;;;4.07;94.81;99305.25;10423190;28;20082;-79
2021/01/23 16:38:12;;;;;;;17.45;9.90;;;;;;;3.70;92.98;99265.56;10400543;28;20048;-80
2021/01/23 16:43:13;;;;;;;15.23;6.93;;;;;;;3.93;91.10;99323.69;10437819;28;20053;-78
2021/01/23 16:48:13;;;;;;;6.53;2.67;;;;;;;3.66;88.82;99312.81;10426679;28;20103;-77
2021/01/23 16:53:13;;;;;;;6.75;2.97;;;;;;;3.67;89.69;99319.72;10417592;28;20059;-77
2021/01/23 16:58:14;;;;;;;5.82;2.78;;;;;;;3.52;90.25;99312.50;10437840;28;20108;-77
2021/01/23 17:03:15;;;;;;;5.93;3.05;;;;;;;3.48;91.51;99327.66;10441559;28;20646;-76
2021/01/23 17:08:15;;;;;;;10.30;3.95;;;;;;;3.44;91.53;99332.19;10407189;28;20058;-76
2021/01/23 17:13:16;;;;;;;11.23;4.90;;;;;;;2.94;91.76;99263.16;10434416;28;20037;-77
2021/01/23 17:18:17;;;;;;;10.02;4.53;;;;;;;3.37;92.84;99338.13;10420373;28;20900;-76
2021/01/23 17:23:17;;;;;;;9.18;4.68;;;;;;;3.03;91.94;99286.22;10412108;28;20047;-81
2021/01/23 17:28:18;;;;;;;11.10;6.38;;;;;;;3.45;92.50;99333.72;10419610;28;20040;-84
2021/01/23 17:33:19;;;;;;;12.05;6.97;;;;;;;3.25;93.69;99309.63;10429243;28;20068;-78
2021/01/23 17:38:22;;;;;;;15.35;8.07;;;;;;;3.14;93.69;99300.59;10381214;28;20041;-84
2021/01/23 17:43:22;;;;;;;20.23;11.00;;;;;;;3.50;93.65;99342.22;10399944;28;20049;-80
2021/01/23 17:48:23;;;;;;;25.40;12.35;;;;;;;3.46;93.10;99340.59;10407809;28;20049;-82
2021/01/23 17:53:26;;;;;;;14.10;8.90;;;;;;;3.49;93.19;99355.94;10390381;28;20516;-82
2021/01/23 17:58:27;;;;;;;15.52;9.43;;;;;;;3.35;92.74;99319.75;10396855;28;20045;-79
2021/01/23 18:03:27;;;;;;;21.65;9.48;;;;;;;3.37;92.26;99338.91;10405843;28;20040;-85
2021/01/23 18:08:28;;;;;;;17.50;9.23;;;;;;;3.46;92.40;99341.38;10405516;28;20083;-79
2021/01/23 18:13:28;;;;;;;17.10;10.07;;;;;;;3.03;93.06;99275.53;10385323;28;20045;-82
2021/01/23 18:18:29;;;;;;;21.38;12.35;;;;;;;3.39;93.18;99336.66;10389544;28;20344;-84
2021/01/23 18:23:29;;;;;;;23.95;14.95;;;;;;;3.36;93.12;99332.03;10392876;28;20047;-78
2021/01/23 18:28:30;;;;;;;21.08;13.40;;;;;;;3.42;93.34;99345.09;10438668;28;20045;-82
2021/01/23 18:33:30;;;;;;;17.58;10.85;;;;;;;3.25;93.39;99347.00;10438822;28;20039;-81
2021/01/23 18:38:31;;;;;;;11.10;7.45;;;;;;;3.39;92.88;99374.06;10400249;28;20048;-81
2021/01/23 18:43:31;;;;;;;12.27;6.95;;;;;;;3.03;92.57;99334.25;10438344;28;20170;-79
2021/01/23 18:48:32;;;;;;;13.90;7.00;;;;;;;3.23;92.65;99370.63;10441924;28;20036;-79
2021/01/23 18:53:32;;;;;;;10.95;6.25;;;;;;;3.09;92.19;99354.25;10435394;28;20091;-81
2021/01/23 18:58:33;;;;;;;9.27;5.40;;;;;;;2.59;92.14;99279.09;10440780;28;21623;-78
2021/01/23 19:03:33;;;;;;;11.70;5.53;;;;;;;3.28;92.49;99382.94;10437211;28;20048;-77
2021/01/23 19:08:33;;;;;;;8.93;5.22;;;;;;;3.21;92.26;99367.50;10440566;28;20040;-79
2021/01/23 19:13:34;;;;;;;8.43;4.10;;;;;;;3.31;92.84;99396.34;10439387;28;20115;-77
2021/01/23 19:18:35;;;;;;;7.55;3.85;;;;;;;3.05;92.12;99374.75;10417139;28;20124;-77
2021/01/23 19:23:35;;;;;;;6.55;2.40;;;;;;;2.65;90.94;99335.63;10433111;28;20053;-77
2021/01/23 19:28:36;;;;;;;4.68;2.28;;;;;;;3.03;91.41;99409.00;10399425;28;20044;-79
2021/01/23 19:33:37;;;;;;;7.78;2.85;;;;;;;2.95;91.23;99419.50;10436220;28;20044;-79
2021/01/23 19:38:37;;;;;;;8.82;4.72;;;;;;;2.35;92.56;99359.97;10438354;28;20035;-80
2021/01/23 19:43:38;;;;;;;6.03;2.72;;;;;;;2.22;92.70;99350.50;10432081;28;20087;-80
2021/01/23 19:48:38;;;;;;;7.78;3.20;;;;;;;1.46;93.42;99275.66;10409035;28;20095;-78
2021/01/23 19:53:39;;;;;;;5.13;3.08;;;;;;;2.06;94.78;99391.19;10412550;28;20111;-79
2021/01/23 19:58:39;;;;;;;10.25;5.70;;;;;;;2.14;95.55;99412.72;10415456;28;20029;-78
2021/01/23 20:03:40;;;;;;;8.48;4.32;;;;;;;0.83;96.85;99226.25;10418703;28;20090;-80
2021/01/23 20:08:40;;;;;;;9.45;4.93;;;;;;;1.61;96.98;99344.19;10413311;28;20049;-79
2021/01/23 20:13:41;;;;;;;10.25;5.65;;;;;;;1.96;98.20;99402.31;10407966;28;20033;-82
2021/01/23 20:18:41;;;;;;;11.27;6.05;;;;;;;1.84;98.38;99378.34;10405585;28;20040;-77
2021/01/23 20:23:42;;;;;;;12.38;7.93;;;;;;;1.75;98.61;99381.13;10411976;28;20086;-82
2021/01/23 20:28:42;;;;;;;18.80;11.98;;;;;;;1.55;99.29;99361.50;10436487;28;20041;-77
2021/01/23 20:33:43;;;;;;;14.77;9.02;;;;;;;1.26;99.40;99327.91;10436318;28;20036;-78
2021/01/23 20:38:44;;;;;;;27.83;13.90;;;;;;;1.68;100.00;99392.34;10407485;28;20044;-82
2021/01/23 20:43:44;;;;;;;19.70;11.20;;;;;;;1.41;100.00;99345.88;10443081;28;20111;-78
2021/01/23 20:48:45;;;;;;;18.08;9.88;;;;;;;1.39;100.00;99331.34;10439829;28;20037;-83
2021/01/23 20:53:46;;;;;;;15.65;10.00;;;;;;;1.59;100.00;99382.94;10406586;28;20051;-80
2021/01/23 20:58:46;;;;;;;20.55;12.55;;;;;;;1.64;100.00;99391.47;10388949;28;20102;-78
2021/01/23 21:03:47;;;;;;;16.08;10.80;;;;;;;1.56;100.00;99371.06;10433066;28;20044;-80
2021/01/23 21:08:47;;;;;;;19.60;11.60;;;;;;;1.71;100.00;99395.47;10429950;28;20543;-77
2021/01/23 21:13:47;;;;;;;19.95;12.60;;;;;;;1.76;100.00;99397.91;10397061;28;20037;-77
2021/01/23 21:18:48;;;;;;;19.70;11.98;;;;;;;1.75;100.00;99396.34;10424013;28;20105;-81
2021/01/23 21:23:50;;;;;;;24.45;12.85;;;;;;;1.78;100.00;99395.69;10410616;28;20079;-78
2021/01/23 21:28:50;;;;;;;22.15;12.55;;;;;;;1.76;100.00;99379.25;10423476;28;20041;-76
2021/01/23 21:33:51;;;;;;;20.95;12.35;;;;;;;1.29;100.00;99315.81;10418354;28;20044;-80
2021/01/23 21:38:52;;;;;;;20.38;10.65;;;;;;;1.87;100.00;99399.00;10419384;28;20102;-76
2021/01/23 21:43:52;;;;;;;23.63;14.48;;;;;;;1.56;100.00;99346.31;10416525;28;20057;-78
2021/01/23 21:48:53;;;;;;;15.25;9.40;;;;;;;1.94;100.00;99398.44;10406360;28;20125;-79
2021/01/23 21:53:53;;;;;;;16.23;9.23;;;;;;;1.93;100.00;99397.66;10417789;28;20041;-77
2021/01/23 21:58:54;;;;;;;15.18;7.78;;;;;;;1.78;100.00;99379.69;10415051;28;20033;-78
2021/01/23 22:03:54;;;;;;;11.73;6.82;;;;;;;1.94;100.00;99399.22;10410580;28;20083;-77
2021/01/23 22:08:55;;;;;;;11.48;6.57;;;;;;;1.91;99.63;99394.56;10419990;28;20466;-79
2021/01/23 22:13:55;;;;;;;12.68;6.13;;;;;;;2.05;99.02;99410.97;10418760;28;20032;-78
2021/01/23 22:18:55;;;;;;;9.52;5.00;;;;;;;2.09;97.81;99417.19;10417966;28;20555;-78
2021/01/23 22:23:56;;;;;;;9.52;4.85;;;;;;;2.07;98.03;99406.06;10410017;28;20037;-78
2021/01/23 22:28:57;;;;;;;12.05;5.30;;;;;;;1.87;98.02;99383.00;10411227;28;20112;-78
2021/01/23 22:33:57;;;;;;;12.00;5.43;;;;;;;1.78;97.59;99369.03;10412522;28;20041;-78
2021/01/23 22:38:58;;;;;;;11.00;4.22;;;;;;;2.00;97.74;99413.88;10388871;28;20048;-78
2021/01/23 22:43:58;;;;;;;9.80;4.10;;;;;;;1.89;97.65;99396.78;10431303;28;20064;-77
2021/01/23 22:48:59;;;;;;;8.82;4.82;;;;;;;1.83;97.62;99384.78;10438790;28;20075;-77
2021/01/23 22:53:59;;;;;;;9.95;4.68;;;;;;;2.37;98.63;99469.75;10447560;28;20048;-76
2021/01/23 22:59:00;;;;;;;8.98;4.55;;;;;;;1.72;98.36;99365.03;10430812;28;20043;-83
2021/01/23 23:04:00;;;;;;;12.32;4.63;;;;;;;1.83;97.95;99382.13;10436353;28;20044;-76
2021/01/23 23:09:01;;;;;;;12.50;4.88;;;;;;;2.11;98.67;99452.25;10440975;28;20032;-77
2021/01/23 23:14:02;;;;;;;8.95;4.00;;;;;;;2.00;98.96;99435.19;10422033;28;20100;-76
2021/01/23 23:19:03;;;;;;;10.70;4.45;;;;;;;1.03;99.92;99292.97;10434346;28;20115;-76
2021/01/23 23:24:03;;;;;;;9.93;4.30;;;;;;;2.13;99.41;99451.16;10418614;28;20056;-77
2021/01/23 23:29:04;;;;;;;7.35;3.42;;;;;;;1.86;98.50;99456.09;10437351;28;20690;-78